Login
Access
Login with your mtb-forum.it nickname and password.


You do not have an account? Sign up here for free

RobertoTinti

Last training unit 31/08/2014
0
Followers
14 590 Km
itineraries
181 750 m
of total vertical gain
557
hours of riding
26.08 Km/h
average speed
148
average HR


31/08/2014 Show to everybody Allenamento 31-08-14 alle 05:58 59.58 Km 950 m 02:56:25 20.26 Km\h Specialized SWorks SL4
26/08/2014 Show to everybody Allenamento 26-08-14 alle 15:57 44.33 Km 354 m 01:42:01 26.07 Km\h Specialized SWorks SL4
18/08/2014 Show to everybody Allenamento 18-08-14 alle 10:20 47.52 Km 384 m 01:41:07 28.2 Km\h Specialized SWorks SL4
17/08/2014 Show to everybody Allenamento 17-08-14 alle 07:44 82.56 Km 637 m 02:56:00 28.14 Km\h Specialized SWorks SL4
01/08/2014 Show to everybody Allenamento 01-08-14 alle 16:38 39.08 Km 342 m 01:28:19 26.55 Km\h Specialized SWorks SL4
28/07/2014 Show to everybody Allenamento 28-07-14 alle 15:59 14.39 Km 44 m 00:31:01 27.84 Km\h Specialized SWorks SL4
27/07/2014 Show to everybody Allenamento 27-07-14 alle 05:00 129.88 Km 1863 m 04:59:01 26.06 Km\h Specialized SWorks SL4
23/07/2014 Show to everybody Allenamento 23-07-14 alle 08:07 75 Km 1463 m 03:12:39 23.36 Km\h Specialized SWorks SL4
16/07/2014 Show to everybody Allenamento 16-07-14 alle 12:59 49.01 Km 878 m 02:01:28 24.21 Km\h Specialized SWorks SL4
06/07/2014 Show to everybody Allenamento 06-07-14 alle 07:37 70.78 Km 803 m 02:33:21 27.69 Km\h Specialized SWorks SL4
01/07/2014 Show to everybody OffRoad 33.88 Km 787 m 01:52:45 18.03 Km\h Scott Scale rc
30/06/2014 Show to everybody Allenamento 30-06-14 alle 16:02 68.98 Km 596 m 02:37:04 26.35 Km\h Specialized SWorks SL4
21/06/2014 Show to everybody Allenamento 21-06-14 alle 12:50 61.78 Km 1006 m 02:23:38 25.81 Km\h Specialized SWorks SL4
18/06/2014 Show to everybody Allenamento 18-06-14 alle 14:30 48.85 Km 1023 m 02:04:28 23.55 Km\h Specialized SWorks SL4
14/06/2014 Show to everybody Allenamento 14-06-14 alle 16:00 27.72 Km 385 m 01:02:12 26.74 Km\h Specialized SWorks SL4
12/06/2014 Show to everybody Allenamento 12-06-14 alle 15:18 55.71 Km 643 m 02:00:40 27.7 Km\h Specialized SWorks SL4
09/06/2014 Show to everybody Allenamento 09-06-14 alle 16:29 37.1 Km 117 m 01:23:49 26.56 Km\h Specialized SWorks SL4
28/05/2014 Show to everybody Allenamento 28-05-14 alle 10:34 74.35 Km 1375 m 02:58:51 24.94 Km\h Specialized SWorks SL4
20/05/2014 Show to everybody Allenamento 20-05-14 alle 15:59 39.91 Km 247 m 01:31:45 26.1 Km\h Specialized SWorks SL4
15/05/2014 Show to everybody Allenamento 15-05-2014 alle 10:40:36 45.59 Km 886 m 01:52:11 24.38 Km\h Specialized SWorks SL4
14/05/2014 Show to everybody Allenamento 14-05-2014 alle 10:51:07 78.89 Km 1565 m 03:13:42 24.44 Km\h Specialized SWorks SL4
11/05/2014 Show to everybody GF della Vernaccia 152.05 Km 2009 m 04:38:25 32.77 Km\h Specialized SWorks SL4
07/05/2014 Show to everybody Distanza 149.89 Km 2331 m 05:49:05 25.76 Km\h Specialized SWorks SL4
06/05/2014 Show to everybody Allenamento 06-05-14 alle 10:04 41.05 Km 612 m 01:30:28 27.23 Km\h Specialized SWorks SL4
05/05/2014 Show to everybody Allenamento 05-05-14 alle 14:54 64.53 Km 238 m 01:58:20 32.72 Km\h Specialized SWorks SL4
01/05/2014 Show to everybody Allenamento 01-05-14 alle 06:40 95.32 Km 1786 m 04:01:05 23.72 Km\h Specialized SWorks SL4
27/04/2014 Show to everybody GF Diavolo in Versilia 132.75 Km 2258 m 04:30:38 29.43 Km\h Specialized SWorks SL4
23/04/2014 Show to everybody Allenamento 23-04-14 alle 10:28 72.83 Km 1085 m 03:18:12 22.05 Km\h Specialized SWorks SL4
18/04/2014 Show to everybody Allenamento 18-04-14 alle 13:46 92.61 Km 452 m 03:04:26 30.13 Km\h Specialized SWorks SL4
14/04/2014 Show to everybody Allenamento 14-04-14 alle 15:56 31.14 Km 201 m 01:14:26 25.1 Km\h Specialized SWorks SL4
08/04/2014 Show to everybody Allenamento 08-04-14 alle 10:09 56.92 Km 614 m 02:07:53 26.71 Km\h Specialized SWorks SL4
06/04/2014 Show to everybody Passeggiata 28.75 Km 91 m 01:26:28 19.95 Km\h Specialized SWorks SL4
05/04/2014 Show to everybody Allenamento 05-04-14 alle 13:15 97.82 Km 911 m 03:20:01 29.34 Km\h Specialized SWorks SL4
29/03/2014 Show to everybody Allenamento 29-03-14 alle 11:27 61.97 Km 812 m 02:16:59 27.14 Km\h Specialized SWorks SL4
28/03/2014 Show to everybody Allenamento 28-03-14 alle 15:31 56.55 Km 1105 m 02:17:43 24.64 Km\h Specialized SWorks SL4
26/03/2014 Show to everybody Allenamento 26-03-14 alle 08:31 108.54 Km 2046 m 04:27:26 24.35 Km\h Specialized SWorks SL4
25/03/2014 Show to everybody Allenamento 25-03-14 alle 11:12 65.35 Km 231 m 02:01:08 32.37 Km\h Specialized SWorks SL4
19/03/2014 Show to everybody Allenamento 19-03-14 alle 11:02 64.93 Km 1390 m 02:48:41 23.1 Km\h Specialized SWorks SL4
18/03/2014 Show to everybody Allenamento 18-03-14 alle 11:10 53.49 Km 515 m 02:02:23 26.22 Km\h Specialized SWorks SL4
16/03/2014 Show to everybody Allenamento 16-03-14 alle 08:01 75.08 Km 1169 m 02:57:15 25.41 Km\h Specialized SWorks SL4
14/03/2014 Show to everybody Allenamento 14-03-14 alle 11:21 49.93 Km 590 m 02:01:52 24.58 Km\h Specialized SWorks SL4
12/03/2014 Show to everybody Allenamento 12-03-14 alle 12:01 91.75 Km 774 m 03:10:36 28.88 Km\h Specialized SWorks SL4
10/03/2014 Show to everybody Giro nel Chianti 145.05 Km 1670 m 05:19:50 27.21 Km\h Specialized SWorks SL4
02/03/2014 Show to everybody GF Val di Cecina 118.01 Km 1625 m 03:43:08 31.73 Km\h Specialized SWorks SL4
27/02/2014 Show to everybody Allenamento 27-02-14 alle 11:01 74.77 Km 225 m 02:30:47 29.75 Km\h Specialized SWorks SL4
26/02/2014 Show to everybody Allenamento 26-02-14 alle 07:57 65.93 Km 969 m 02:41:34 24.48 Km\h Specialized SWorks SL4
14/02/2014 Show to everybody Allenamento 14-02-14 alle 11:07 54.42 Km 216 m 02:00:08 27.18 Km\h Specialized SWorks SL4
13/02/2014 Show to everybody Allenamento 13-02-14 alle 11:37 50.02 Km 552 m 01:58:02 25.43 Km\h Specialized SWorks SL4
12/02/2014 Show to everybody Allenamento 12-02-14 alle 11:19 87.9 Km 1701 m 03:54:30 22.49 Km\h Specialized SWorks SL4
08/02/2014 Show to everybody Allenamento 08-02-14 alle 12:31 76.06 Km 342 m 02:39:20 28.64 Km\h Specialized SWorks SL4
29/01/2014 Show to everybody Allenamento 29-01-2014 alle 10:35:17 49.53 Km 1035 m 02:09:56 22.87 Km\h Specialized SWorks SL4
26/01/2014 Show to everybody Allenamento 26-01-2014 alle 13:42:07 55.66 Km 612 m 02:03:28 27.05 Km\h Specialized SWorks SL4
23/01/2014 Show to everybody Allenamento 23-01-2014 alle 11:05:14 50.36 Km 681 m 02:09:57 23.25 Km\h Specialized SWorks SL4
22/01/2014 Show to everybody Allenamento 22-01-2014 alle 10:17:23 65.01 Km 266 m 02:06:01 30.95 Km\h Specialized SWorks SL4
16/01/2014 Show to everybody Allenamento 16-01-2014 alle 11:03:49 74.54 Km 188 m 02:23:13 31.23 Km\h Specialized SWorks SL4
15/01/2014 Show to everybody Allenamento 15-01-2014 alle 11:26:59 78.2 Km 1273 m 03:10:30 24.63 Km\h Specialized SWorks SL4
10/01/2014 Show to everybody Allenamento 10-01-2014 alle 09:17:55 55.28 Km 451 m 02:05:28 26.44 Km\h Specialized SWorks SL4
08/01/2014 Show to everybody Allenamento 08-01-2014 alle 08:15:25 103.9 Km 1343 m 04:08:37 25.07 Km\h Specialized SWorks SL4
07/01/2014 Show to everybody Allenamento 07-01-2014 alle 11:06:58 77.88 Km 221 m 02:30:26 31.06 Km\h Specialized SWorks SL4
06/01/2014 Show to everybody Allenamento 06-01-2014 alle 08:21:30 68.85 Km 1014 m 02:48:36 24.5 Km\h Specialized SWorks SL4
03/01/2014 Show to everybody Allenamento 03-01-2014 alle 11:10:16 63.67 Km 170 m 02:01:50 31.35 Km\h Specialized SWorks SL4
01/01/2014 Show to everybody Allenamento 01-01-2014 alle 09:08:34 126.49 Km 1645 m 05:00:56 25.22 Km\h Specialized SWorks SL4
17/08/2013 Show to everybody Allenamento 17-08-2013 alle 14:04:16 73.56 Km 876 m 02:48:49 26.15 Km\h Specialized SWorks SL4
16/08/2013 Show to everybody Allenamento 16-08-2013 alle 05:07:39 110.7 Km 1899 m 04:37:18 23.95 Km\h Specialized SWorks SL4
13/08/2013 Show to everybody Allenamento 13-08-2013 alle 04:59:31 100.47 Km 1455 m 03:55:41 25.58 Km\h Specialized SWorks SL4
09/08/2013 Show to everybody Allenamento 09-08-2013 alle 06:21:02 89.34 Km 2107 m 04:09:21 21.5 Km\h Specialized SWorks SL4
07/08/2013 Show to everybody Allenamento 07-08-2013 alle 06:03:31 69.91 Km 1870 m 03:27:19 20.23 Km\h Specialized SWorks SL4
05/08/2013 Show to everybody Allenamento 05-08-2013 alle 05:58:47 91.11 Km 2164 m 03:49:25 23.83 Km\h Specialized SWorks SL4
02/08/2013 Show to everybody Allenamento 02-08-2013 alle 04:34:13 52.53 Km 562 m 01:55:33 27.27 Km\h Specialized SWorks SL4
31/07/2013 Show to everybody Allenamento 31-07-2013 alle 08:12:20 73.11 Km 988 m 02:45:41 26.48 Km\h Specialized SWorks SL4
30/07/2013 Show to everybody Allenamento 30-07-2013 alle 16:00:42 46.25 Km 434 m 01:48:45 25.52 Km\h Specialized SWorks SL4
28/07/2013 Show to everybody Allenamento 28-07-2013 alle 05:49:14 88.21 Km 1610 m 03:41:57 23.85 Km\h Specialized SWorks SL4
27/07/2013 Show to everybody Allenamento 27-07-2013 alle 05:04:42 75.32 Km 283 m 02:30:55 29.94 Km\h Specialized SWorks SL4
25/07/2013 Show to everybody Allenamento 25-07-2013 alle 16:15:02 39.52 Km 632 m 01:38:11 24.15 Km\h Specialized SWorks SL4
21/07/2013 Show to everybody Allenamento 21-07-2013 alle 15:25:16 43.52 Km 502 m 01:42:06 25.57 Km\h Specialized SWorks SL4
20/07/2013 Show to everybody Allenamento 20-07-2013 alle 15:17:23 49.79 Km 819 m 02:03:19 24.22 Km\h Specialized SWorks SL4
17/07/2013 Show to everybody Allenamento 17-07-2013 alle 04:58:19 118.2 Km 1464 m 04:31:01 26.17 Km\h Specialized SWorks SL4
14/07/2013 Show to everybody Allenamento 14-07-2013 alle 13:24:41 92.33 Km 1307 m 03:24:30 27.09 Km\h Specialized SWorks SL4
07/07/2013 Show to everybody Allenamento 07-07-2013 alle 06:12:30 87.3 Km 956 m 03:24:25 25.62 Km\h Specialized SWorks SL4
01/07/2013 Show to everybody Allenamento 01-07-2013 alle 15:47:01 39.91 Km 647 m 01:34:02 25.46 Km\h Specialized SWorks SL4
26/06/2013 Show to everybody Allenamento 26-06-2013 alle 15:56:41 49.9 Km 650 m 02:00:07 24.92 Km\h Specialized SWorks SL4
25/06/2013 Show to everybody Allenamento 25-06-2013 alle 10:49:34 66.95 Km 290 m 02:03:37 32.5 Km\h Specialized SWorks SL4
24/06/2013 Show to everybody Allenamento 24-06-2013 alle 15:52:04 34.49 Km 670 m 01:27:49 23.56 Km\h Specialized SWorks SL4
22/06/2013 Show to everybody Allenamento 22-06-2013 alle 13:16:13 62.25 Km 656 m 02:25:57 25.59 Km\h Specialized SWorks SL4
20/06/2013 Show to everybody Allenamento 20-06-2013 alle 06:03:40 88.78 Km 1281 m 03:44:20 23.74 Km\h Specialized SWorks SL4
19/06/2013 Show to everybody Allenamento 19-06-2013 alle 05:27:56 109.13 Km 1541 m 04:24:32 24.75 Km\h Specialized SWorks SL4
18/06/2013 Show to everybody Allenamento 18-06-2013 alle 05:36:31 111 Km 890 m 04:07:48 26.88 Km\h Specialized SWorks SL4
16/06/2013 Show to everybody GF Città di Arezzo 149.5 Km 1579 m 04:22:20 34.19 Km\h Specialized SWorks SL4
15/06/2013 Show to everybody Allenamento 15-06-2013 alle 09:48:40 23.93 Km 457 m 01:01:02 23.52 Km\h Specialized SWorks SL4
14/06/2013 Show to everybody Allenamento 14-06-2013 alle 15:48:09 39.18 Km 266 m 01:27:02 27.01 Km\h Specialized SWorks SL4
13/06/2013 Show to everybody Allenamento 13-06-2013 alle 09:54:08 97.26 Km 655 m 03:09:39 30.77 Km\h Specialized SWorks SL4
11/06/2013 Show to everybody Allenamento 11-06-2013 alle 10:37:57 47.89 Km 890 m 02:00:21 23.87 Km\h Specialized SWorks SL4
10/06/2013 Show to everybody Allenamento 10-06-2013 alle 15:49:10 50.79 Km 663 m 02:01:47 25.02 Km\h Specialized SWorks SL4
09/06/2013 Show to everybody GF del Capitano 140.09 Km 3063 m 05:15:31 26.64 Km\h Specialized SWorks SL4
08/06/2013 Show to everybody Allenamento 08-06-2013 alle 09:27:35 52.55 Km 654 m 02:05:42 25.09 Km\h Specialized SWorks SL4
06/06/2013 Show to everybody Allenamento 06-06-2013 alle 09:58:21 96.49 Km 651 m 03:05:52 31.15 Km\h Specialized SWorks SL4
05/06/2013 Show to everybody Allenamento 05-06-2013 alle 10:07:59 71.24 Km 1456 m 03:02:48 23.38 Km\h Specialized SWorks SL4
04/06/2013 Show to everybody Allenamento 04-06-2013 alle 16:05:59 61.9 Km 211 m 01:50:21 33.66 Km\h Specialized SWorks SL4
03/06/2013 Show to everybody Allenamento 03-06-2013 alle 10:31:39 48.08 Km 440 m 01:42:44 28.08 Km\h Specialized SWorks SL4
02/06/2013 Show to everybody Allenamento 02-06-2013 alle 08:16:51 61.09 Km 869 m 02:15:41 27.02 Km\h Specialized SWorks SL4
01/06/2013 Show to everybody Allenamento 01-06-2013 alle 10:53:15 54.7 Km 1056 m 02:10:29 25.15 Km\h Specialized SWorks SL4
30/05/2013 Show to everybody Allenamento 30-05-2013 alle 07:07:40 91.75 Km 975 m 03:27:59 26.47 Km\h Specialized SWorks SL4
29/05/2013 Show to everybody Allenamento 29-05-2013 alle 10:41:23 75.61 Km 435 m 02:27:39 30.73 Km\h Specialized SWorks SL4
27/05/2013 Show to everybody Allenamento 27-05-2013 alle 15:38:24 45.24 Km 726 m 01:48:09 25.1 Km\h Specialized SWorks SL4
26/05/2013 Show to everybody Allenamento 26-05-2013 alle 08:59:23 40.92 Km 226 m 01:32:29 26.55 Km\h Specialized SWorks SL4
19/05/2013 Show to everybody Nove Colli (con Caduta) 90.65 Km 1678 m 03:04:45 29.44 Km\h Specialized SWorks SL4
18/05/2013 Show to everybody Allenamento 18-05-2013 alle 05:33:47 39.92 Km 317 m 01:25:00 28.18 Km\h Specialized SWorks SL4
15/05/2013 Show to everybody Allenamento 15-05-2013 alle 10:49:41 65.39 Km 866 m 02:31:37 25.88 Km\h Specialized SWorks SL4
14/05/2013 Show to everybody Allenamento 14-05-2013 alle 09:57:02 40.49 Km 349 m 01:35:51 25.34 Km\h Specialized SWorks SL4
12/05/2013 Show to everybody GF Della Vernaccia 159.93 Km 2307 m 04:58:46 32.12 Km\h Specialized SWorks SL4
11/05/2013 Show to everybody Allenamento 11-05-2013 alle 15:53:54 33.1 Km 228 m 01:13:08 27.16 Km\h Specialized SWorks SL4
09/05/2013 Show to everybody Allenamento 09-05-2013 alle 09:51:29 38.85 Km 740 m 01:36:16 24.21 Km\h Specialized SWorks SL4
08/05/2013 Show to everybody Allenamento 08-05-2013 alle 10:25:41 75.51 Km 1160 m 02:54:17 26 Km\h Specialized SWorks SL4
06/05/2013 Show to everybody Allenamento 06-05-2013 alle 15:43:37 46.9 Km 772 m 01:48:08 26.02 Km\h Specialized SWorks SL4
04/05/2013 Show to everybody Allenamento 04-05-2013 alle 15:03:10 35.75 Km 162 m 01:04:40 33.17 Km\h Specialized SWorks SL4
03/05/2013 Show to everybody Allenamento 03-05-2013 alle 09:58:36 58.38 Km 1182 m 02:31:23 23.14 Km\h Specialized SWorks SL4
30/04/2013 Show to everybody Allenamento 30-04-2013 alle 09:54:18 52.1 Km 421 m 01:50:26 28.31 Km\h Specialized SWorks SL4
29/04/2013 Show to everybody Allenamento 29-04-2013 alle 06:52:01 81.97 Km 996 m 03:15:45 25.13 Km\h Specialized SWorks SL4
27/04/2013 Show to everybody Allenamento 27-04-2013 alle 13:53:37 55.68 Km 599 m 02:10:04 25.69 Km\h Specialized SWorks SL4
25/04/2013 Show to everybody GF Città di Chianciano 154.99 Km 2512 m 04:46:02 32.51 Km\h Specialized SWorks SL4
24/04/2013 Show to everybody Allenamento 24-04-2013 alle 11:44:38 51.74 Km 573 m 01:55:49 26.81 Km\h Specialized SWorks SL4
23/04/2013 Show to everybody Allenamento 23-04-2013 alle 09:49:20 45.73 Km 667 m 01:56:50 23.49 Km\h Specialized SWorks SL4
21/04/2013 Show to everybody GF Diavolo in Versilia 121.64 Km 2140 m 04:06:40 29.59 Km\h Specialized SWorks SL4
19/04/2013 Show to everybody Allenamento 19-04-2013 alle 08:59:39 59.22 Km 402 m 02:09:33 27.42 Km\h Specialized SWorks SL4
17/04/2013 Show to everybody Allenamento 17-04-2013 alle 10:40:09 103.14 Km 1701 m 03:58:27 25.95 Km\h Specialized SWorks SL4
16/04/2013 Show to everybody Allenamento 16-04-2013 alle 10:09:55 63.85 Km 793 m 02:33:02 25.03 Km\h Specialized SWorks SL4
14/04/2013 Show to everybody Allenamento 14-04-2013 alle 15:50:51 54.26 Km 431 m 01:57:10 27.79 Km\h Specialized SWorks SL4
13/04/2013 Show to everybody Allenamento 13-04-2013 alle 10:13:09 61.92 Km 596 m 02:16:18 27.26 Km\h Specialized SWorks SL4
10/04/2013 Show to everybody Allenamento 10-04-2013 alle 09:56:30 51.71 Km 1077 m 02:12:43 23.38 Km\h Specialized SWorks SL4
09/04/2013 Show to everybody Allenamento 09-04-2013 alle 15:29:20 49.58 Km 690 m 02:06:30 23.51 Km\h Specialized SWorks SL4
08/04/2013 Show to everybody Allenamento 08-04-2013 alle 15:35:50 41.23 Km 506 m 01:37:58 25.25 Km\h Specialized SWorks SL4
07/04/2013 Show to everybody Allenamento 07-04-2013 alle 07:01:27 80.62 Km 645 m 03:15:17 24.77 Km\h Specialized SWorks SL4
03/04/2013 Show to everybody Allenamento 03-04-2013 alle 10:09:01 83.63 Km 1507 m 03:24:28 24.54 Km\h Specialized SWorks SL4
02/04/2013 Show to everybody Allenamento 02-04-2013 alle 09:59:24 57.74 Km 394 m 02:01:02 28.62 Km\h Specialized SWorks SL4
01/04/2013 Show to everybody Allenamento 01-04-2013 alle 12:48:19 62.3 Km 977 m 02:39:20 23.46 Km\h Specialized SWorks SL4
28/03/2013 Show to everybody Allenamento 28-03-2013 alle 10:59:23 53.35 Km 415 m 02:00:51 26.49 Km\h Specialized SWorks SL4
27/03/2013 Show to everybody Allenamento 27-03-2013 alle 11:08:36 93.85 Km 2013 m 03:53:03 24.16 Km\h Specialized SWorks SL4
26/03/2013 Show to everybody Allenamento 26-03-2013 alle 10:57:23 36.51 Km 640 m 01:45:52 20.69 Km\h Scott Scale rc
24/03/2013 Show to everybody GF Inkospor 127.01 Km 1840 m 03:52:15 32.81 Km\h Specialized SWorks SL4
22/03/2013 Show to everybody Allenamento 22-03-2013 alle 11:00:26 60.44 Km 899 m 02:21:51 25.57 Km\h Specialized SWorks SL4
21/03/2013 Show to everybody Allenamento 21-03-2013 alle 10:44:28 48.44 Km 924 m 02:01:36 23.9 Km\h Specialized SWorks SL4
20/03/2013 Show to everybody Allenamento 20-03-2013 alle 11:24:28 65.13 Km 983 m 02:42:35 24.03 Km\h Specialized SWorks SL4
19/03/2013 Show to everybody Allenamento 19-03-2013 alle 10:47:30 48.22 Km 438 m 01:57:03 24.72 Km\h Specialized SWorks SL4
17/03/2013 Show to everybody GF Davide Cassani 122.06 Km 2171 m 04:09:35 29.34 Km\h Specialized SWorks SL4
16/03/2013 Show to everybody Allenamento 16-03-2013 alle 12:12:34 83.88 Km 326 m 02:49:49 29.64 Km\h Specialized SWorks SL4
15/03/2013 Show to everybody Allenamento 15-03-2013 alle 11:57:33 41.08 Km 596 m 01:44:50 23.51 Km\h Specialized SWorks SL4
10/03/2013 Show to everybody Allenamento 10-03-2013 alle 13:42:19 53.5 Km 551 m 02:04:35 25.76 Km\h Specialized SWorks SL4
09/03/2013 Show to everybody Passeggiata 42.91 Km 491 m 01:57:16 21.96 Km\h Scott Scale rc
08/03/2013 Show to everybody Strade Bianche 55.35 Km 1152 m 03:02:59 18.15 Km\h Scott Scale rc
06/03/2013 Show to everybody Allenamento 06-03-2013 alle 10:46:45 63.31 Km 1235 m 02:51:51 22.1 Km\h Specialized SWorks SL4
05/03/2013 Show to everybody Allenamento 05-03-2013 alle 10:33:04 63.45 Km 311 m 01:59:42 31.8 Km\h Specialized SWorks SL4
03/03/2013 Show to everybody GF Val Di Cecina 127 Km 1931 m 03:54:50 32.45 Km\h Specialized SWorks SL4
01/03/2013 Show to everybody Allenamento 01-03-2013 alle 10:52:11 43.26 Km 751 m 01:49:45 23.65 Km\h Specialized SWorks SL4
28/02/2013 Show to everybody Allenamento 28-02-2013 alle 10:37:24 47.36 Km 593 m 01:56:02 24.49 Km\h Specialized SWorks SL4
27/02/2013 Show to everybody Allenamento 27-02-2013 alle 11:06:57 47.66 Km 420 m 01:48:28 26.36 Km\h Specialized SWorks SL4
17/02/2013 Show to everybody Allenamento 17-02-2013 alle 07:21:12 81.45 Km 1566 m 03:31:21 23.12 Km\h Specialized SWorks SL4
16/02/2013 Show to everybody Allenamento 16-02-2013 alle 10:44:37 74.11 Km 335 m 02:32:40 29.13 Km\h Specialized SWorks SL4
15/02/2013 Show to everybody Allenamento 15-02-2013 alle 10:34:48 51.46 Km 559 m 02:02:15 25.26 Km\h Specialized SWorks SL4
13/02/2013 Show to everybody Allenamento 13-02-2013 alle 11:12:51 87.48 Km 916 m 03:07:31 27.99 Km\h Specialized SWorks SL4
09/02/2013 Show to everybody Allenamento 09-02-2013 alle 12:20:26 48.66 Km 1004 m 02:10:46 22.33 Km\h Specialized SWorks SL4
08/02/2013 Show to everybody Allenamento 08-02-2013 alle 10:51:22 38.19 Km 794 m 01:47:54 21.24 Km\h Scott Scale rc
07/02/2013 Show to everybody Allenamento 07-02-2013 alle 11:31:45 31.64 Km 527 m 01:32:59 20.42 Km\h Scott Scale rc
05/02/2013 Show to everybody Allenamento 05-02-2013 alle 11:09:26 26.59 Km 95 m 01:13:25 21.73 Km\h Scott Scale rc
26/01/2013 Show to everybody Allenamento 26-01-2013 alle 07:31:23 114.53 Km 1274 m 04:12:55 27.17 Km\h Specialized SWorks SL4
24/01/2013 Show to everybody Allenamento 24-01-2013 alle 12:19:45 54.27 Km 446 m 02:02:28 26.59 Km\h Specialized SWorks SL4
17/01/2013 Show to everybody Allenamento 17-01-2013 alle 11:31:44 68.57 Km 233 m 02:24:21 28.5 Km\h Specialized SWorks SL4
12/01/2013 Show to everybody Allenamento 12-01-2013 alle 10:47:13 83.91 Km 1520 m 03:29:54 23.99 Km\h Specialized SWorks SL4
09/01/2013 Show to everybody Allenamento 09-01-2013 alle 11:01:13 92.7 Km 1366 m 03:44:45 24.75 Km\h Specialized SWorks SL4
08/01/2013 Show to everybody Allenamento 08-01-2013 alle 11:21:11 74.92 Km 745 m 02:43:09 27.55 Km\h Specialized SWorks SL4
07/01/2013 Show to everybody Allenamento 07-01-2013 alle 12:38:16 61.38 Km 1017 m 02:34:38 23.82 Km\h Specialized SWorks SL4
06/01/2013 Show to everybody Allenamento 06-01-2013 alle 06:58:03 121.59 Km 1868 m 04:47:45 25.35 Km\h Specialized SWorks SL4
04/01/2013 Show to everybody Allenamento 04-01-2013 alle 11:14:02 80.52 Km 249 m 02:54:27 27.69 Km\h Specialized SWorks SL4
03/01/2013 Show to everybody Allenamento 03-01-2013 alle 10:30:53 52.92 Km 173 m 02:00:26 26.37 Km\h Specialized SWorks SL4
31/12/2012 Show to everybody Allenamento 31-12-2012 alle 10:09:02 55.33 Km 250 m 02:01:23 27.35 Km\h Specialized SWorks SL4
30/12/2012 Show to everybody Allenamento 30-12-2012 alle 07:17:13 101.59 Km 1428 m 04:17:46 23.65 Km\h Specialized SWorks SL4
29/12/2012 Show to everybody Allenamento 29-12-2012 alle 10:55:53 70.08 Km 203 m 02:30:47 27.89 Km\h Specialized SWorks SL4
28/12/2012 Show to everybody Allenamento 28-12-2012 alle 11:46:50 66.31 Km 742 m 02:41:21 24.66 Km\h Specialized SWorks SL4
26/12/2012 Show to everybody Allenamento 26-12-2012 alle 07:47:41 86.55 Km 1758 m 03:51:49 22.4 Km\h Specialized SWorks SL4
25/12/2012 Show to everybody Allenamento 25-12-2012 alle 08:13:36 83.99 Km 274 m 03:01:59 27.69 Km\h Specialized SWorks SL4
23/12/2012 Show to everybody Allenamento 23-12-2012 alle 07:14:41 98.93 Km 1775 m 04:15:31 23.23 Km\h Specialized SWorks SL4
22/12/2012 Show to everybody Allenamento 22-12-2012 alle 11:01:26 71.37 Km 232 m 02:32:47 28.03 Km\h Specialized SWorks SL4
18/12/2012 Show to everybody Allenamento 18-12-2012 alle 11:43:45 48.51 Km 418 m 01:58:43 24.52 Km\h Specialized SWorks SL4
12/12/2012 Show to everybody Allenamento 12-12-2012 alle 11:25:09 74.26 Km 876 m 03:00:55 24.63 Km\h Specialized SWorks SL4
11/12/2012 Show to everybody Allenamento 11-12-2012 alle 11:24:51 70.11 Km 174 m 02:27:44 28.47 Km\h Specialized SWorks SL4
09/12/2012 Show to everybody Allenamento 09-12-2012 alle 08:39:51 61.18 Km 677 m 02:31:27 24.24 Km\h Specialized SWorks SL4
05/12/2012 Show to everybody Allenamento 05-12-2012 alle 11:55:02 67.88 Km 943 m 03:01:36 22.43 Km\h Specialized SWorks SL4
03/12/2012 Show to everybody Allenamento 03-12-2012 alle 10:58:11 70.8 Km 266 m 02:33:44 27.63 Km\h Specialized SWorks SL4
02/12/2012 Show to everybody Allenamento 02-12-2012 alle 08:54:16 46.51 Km 1029 m 02:21:50 19.67 Km\h Specialized SWorks SL4
01/12/2012 Show to everybody Allenamento 01-12-2012 alle 11:01:19 56.97 Km 149 m 02:03:10 27.75 Km\h Specialized SWorks SL4
25/11/2012 Show to everybody Allenamento 25-11-2012 alle 08:19:15 84.05 Km 967 m 03:22:12 24.94 Km\h Specialized SWorks SL4
24/11/2012 Show to everybody Allenamento 24-11-2012 alle 10:59:24 80.89 Km 537 m 02:56:54 27.44 Km\h Specialized SWorks SL4
23/11/2012 Show to everybody Allenamento 23-11-2012 alle 11:05:15 70.98 Km 239 m 02:32:08 27.99 Km\h Specialized SWorks SL4
21/11/2012 Show to everybody Allenamento 21-11-2012 alle 11:20:19 62.22 Km 634 m 02:33:35 24.31 Km\h Specialized SWorks SL4
20/11/2012 Show to everybody Allenamento 20-11-2012 alle 10:45:32 52 Km 177 m 01:57:09 26.63 Km\h Specialized SWorks SL4
17/11/2012 Show to everybody Allenamento 17-11-2012 alle 12:24:58 65.74 Km 287 m 02:29:12 26.44 Km\h Specialized SWorks SL4
14/11/2012 Show to everybody Allenamento 14-11-2012 alle 07:45:19 61.39 Km 289 m 02:19:54 26.33 Km\h Specialized SWorks SL4
25/10/2012 Show to everybody Allenamento 25-10-2012 alle 09:33:06 50.42 Km 856 m 02:13:06 22.73 Km\h Specialized SWorks SL4
22/10/2012 Show to everybody Allenamento 22-10-2012 alle 09:48:18 46.7 Km 676 m 01:49:43 25.54 Km\h Specialized SWorks SL4
21/10/2012 Show to everybody Allenamento 21-10-2012 alle 05:59:10 101.83 Km 1088 m 03:55:08 25.98 Km\h Specialized SWorks SL4
19/10/2012 Show to everybody Allenamento 19-10-2012 alle 09:55:21 57.36 Km 435 m 02:07:48 26.93 Km\h Specialized SWorks SL4
13/10/2012 Show to everybody Allenamento 13-10-2012 alle 07:41:33 78.64 Km 481 m 02:46:16 28.38 Km\h Specialized SWorks SL4
11/10/2012 Show to everybody Allenamento 11-10-2012 alle 07:37:41 94.32 Km 1207 m 03:40:09 25.7 Km\h Specialized SWorks SL4
23/09/2012 Show to everybody Allenamento 23-09-2012 alle 06:45:32 71.32 Km 976 m 02:47:15 25.58 Km\h Specialized SWorks SL4
18/09/2012 Show to everybody Allenamento 18-09-2012 alle 15:41:09 42.18 Km 355 m 01:36:49 26.14 Km\h Specialized SWorks SL4
13/09/2012 Show to everybody Allenamento 13-09-2012 alle 09:37:49 39.79 Km 856 m 01:51:12 21.47 Km\h Specialized SWorks SL4
12/09/2012 Show to everybody Allenamento 12-09-2012 alle 09:53:12 58.29 Km 179 m 01:50:10 31.75 Km\h Specialized SWorks SL4
11/09/2012 Show to everybody Allenamento 11-09-2012 alle 09:47:47 38.87 Km 490 m 01:35:54 24.32 Km\h Specialized SWorks SL4
07/09/2012 Show to everybody Allenamento 07-09-2012 alle 05:23:57 53.21 Km 615 m 02:03:49 25.78 Km\h Specialized SWorks SL4
05/09/2012 Show to everybody Allenamento 05-09-2012 alle 16:26:15 27.52 Km 189 m 01:01:35 26.82 Km\h Specialized SWorks SL4
16/08/2012 Show to everybody Allenamento 16-08-2012 alle 13:47:23 94.51 Km 1910 m 03:59:56 23.63 Km\h Specialized SWorks SL4

Show previous years trainings
This user's bikes.
Specialized SWorks SL4 204 14324.86 Km 177264 m 544:42:07 26.27 Km/h
Scott Scale rc 7 265.06 Km 4486 m 13:13:10 20.31 Km/h

282 points
Kilometers
0
Vertical gain
0
Rank:61

Watch ranking »

 

Bike name

Delete this bike?

Now you follow this users and you can compare your trainings

If you stop following this users you will not be able to compare your trainings with his


bdc-forum.it | 2012-2019 Training Camp v.1.0.15